PWSweather.com
Personal Weather Stations
Station Observations
METEOC500
Santo Antonio, FunchalPT 2020

Santo AntonioFunchalPT 2020

Lat: 32.678227, Lon: -16.945054

Elevation: 1669.94751

Station Type: WH Series

Latest ConditionsUpdated 5:15:48 AM GMT Tuesday, Mar 26, 2019
Currently Today's Max Today's Min Today's Average
Temperature 58.5°F14.7°C 60.4°F15.8°C 58.3°F14.6°C 59.3°F15.2°C
Dew Point 44.2°F6.8°C 47.5°F8.6°C 41.2°F5.1°C 44.5°F6.9°C
Winds 8.7 mph SSE14.0 kmh SSE 33.1 mph -53.3 kmh - - 12.1 mph 19.5 kmh
Wind Gusts 25.1 mph40.4 kmh 42.5 mph68.4 kmh - -
Humidity 59% 65% 49% 58%
Pressure 29.82 in1009.8 mb 29.88 in1011.9 mb 29.80 in1009.1 mb -
Hour Temp Dew Point Humidity Winds Wind Gusts Pressure Precip Precip Rate Daily Precip Total
05:15 AM 58.5°F14.7°C 44.2°F6.8°C 59% 8.7 mph SSE14.0 kmh SSE 25.1 mph40.4 kmh 29.82 in1009.8 mb 0.00 in0.0 mm 0.00 in0.0 mm 0.00 in0.0 mm
05:00 AM 58.3°F14.6°C 43.5°F6.4°C 58% 3.4 mph SE5.5 kmh SE 32.7 mph52.6 kmh 29.82 in1009.8 mb 0.00 in0.0 mm 0.00 in0.0 mm 0.00 in0.0 mm
04:45 AM 58.3°F14.6°C 44.4°F6.9°C 60% 14.8 mph SW23.8 kmh SW 22.6 mph36.4 kmh 29.81 in1009.5 mb 0.00 in0.0 mm 0.00 in0.0 mm 0.00 in0.0 mm
04:30 AM 58.6°F14.8°C 46.6°F8.1°C 64% 1.8 mph SSW2.9 kmh SSW 40.0 mph64.4 kmh 29.82 in1009.8 mb 0.00 in0.0 mm 0.00 in0.0 mm 0.00 in0.0 mm
04:15 AM 59.2°F15.1°C 47.5°F8.6°C 65% 25.7 mph NW41.4 kmh NW 37.6 mph60.5 kmh 29.80 in1009.1 mb 0.00 in0.0 mm 0.00 in0.0 mm 0.00 in0.0 mm
04:00 AM 59.2°F15.1°C 43.0°F6.1°C 55% 0.2 mph WSW0.3 kmh WSW 12.5 mph20.1 kmh 29.83 in1010.2 mb 0.00 in0.0 mm 0.00 in0.0 mm 0.00 in0.0 mm
03:45 AM 59.0°F15.0°C 43.3°F6.3°C 56% 0.7 mph W1.1 kmh W 25.1 mph40.4 kmh 29.83 in1010.2 mb 0.00 in0.0 mm 0.00 in0.0 mm 0.00 in0.0 mm
03:30 AM 59.2°F15.1°C 43.5°F6.4°C 56% 6.0 mph SW9.7 kmh SW 12.5 mph20.1 kmh 29.83 in1010.2 mb 0.00 in0.0 mm 0.00 in0.0 mm 0.00 in0.0 mm
03:15 AM 59.5°F15.3°C 43.9°F6.6°C 56% 9.6 mph SSW15.4 kmh SSW 17.4 mph28.0 kmh 29.83 in1010.2 mb 0.00 in0.0 mm 0.00 in0.0 mm 0.00 in0.0 mm
03:00 AM 59.7°F15.4°C 45.0°F7.2°C 58% 1.6 mph NNE2.6 kmh NNE 20.1 mph32.3 kmh 29.84 in1010.5 mb 0.00 in0.0 mm 0.00 in0.0 mm 0.00 in0.0 mm
02:45 AM 60.3°F15.7°C 44.1°F6.7°C 55% 4.9 mph ENE7.9 kmh ENE 37.6 mph60.5 kmh 29.84 in1010.5 mb 0.00 in0.0 mm 0.00 in0.0 mm 0.00 in0.0 mm
02:30 AM 60.4°F15.8°C 41.2°F5.1°C 49% 24.2 mph N38.9 kmh N 42.5 mph68.4 kmh 29.82 in1009.8 mb 0.00 in0.0 mm 0.00 in0.0 mm 0.00 in0.0 mm
02:14 AM 59.7°F15.4°C 43.0°F6.1°C 54% 9.2 mph NNW14.8 kmh NNW 42.5 mph68.4 kmh 29.80 in1009.1 mb 0.00 in0.0 mm 0.00 in0.0 mm 0.00 in0.0 mm
01:59 AM 59.5°F15.3°C 45.7°F7.6°C 60% 17.2 mph NNW27.7 kmh NNW 40.0 mph64.4 kmh 29.82 in1009.8 mb 0.00 in0.0 mm 0.00 in0.0 mm 0.00 in0.0 mm
01:44 AM 59.4°F15.2°C 44.6°F7.0°C 58% 33.1 mph N53.3 kmh N 40.0 mph64.4 kmh 29.83 in1010.2 mb 0.00 in0.0 mm 0.00 in0.0 mm 0.00 in0.0 mm
01:29 AM 59.4°F15.2°C 44.1°F6.7°C 57% 15.4 mph NW24.8 kmh NW 40.0 mph64.4 kmh 29.84 in1010.5 mb 0.00 in0.0 mm 0.00 in0.0 mm 0.00 in0.0 mm
01:14 AM 59.2°F15.1°C 45.7°F7.6°C 61% 22.1 mph N35.6 kmh N 42.5 mph68.4 kmh 29.85 in1010.8 mb 0.00 in0.0 mm 0.00 in0.0 mm 0.00 in0.0 mm
12:59 AM 59.4°F15.2°C 44.6°F7.0°C 58% 12.3 mph NNE19.8 kmh NNE 30.0 mph48.3 kmh 29.87 in1011.5 mb 0.00 in0.0 mm 0.00 in0.0 mm 0.00 in0.0 mm
12:44 AM 59.7°F15.4°C 46.8°F8.2°C 62% 12.8 mph NW20.6 kmh NW 42.5 mph68.4 kmh 29.88 in1011.9 mb 0.00 in0.0 mm 0.00 in0.0 mm 0.00 in0.0 mm
12:29 AM 59.7°F15.4°C 44.4°F6.9°C 57% 16.6 mph NW26.7 kmh NW 40.0 mph64.4 kmh 29.86 in1011.2 mb 0.00 in0.0 mm 0.00 in0.0 mm 0.00 in0.0 mm
12:14 AM 59.7°F15.4°C 45.9°F7.7°C 60% 14.1 mph NE22.7 kmh NE 40.0 mph64.4 kmh 29.85 in1010.8 mb 0.00 in0.0 mm 0.00 in0.0 mm 0.00 in0.0 mm